createdAt,value
2023-03-08T00:01:41.771Z,6.07
2023-03-08T00:04:11.858Z,5.96
2023-03-08T00:06:39.675Z,6.01
2023-03-08T00:09:08.687Z,6.17
2023-03-08T00:11:36.321Z,6.17
2023-03-08T00:14:04.007Z,5.98
2023-03-08T00:16:31.664Z,6.03
2023-03-08T00:18:59.337Z,6.01
2023-03-08T00:21:26.914Z,5.94
2023-03-08T00:23:55.118Z,5.84
2023-03-08T00:26:24.205Z,5.90
2023-03-08T00:28:52.711Z,5.93
2023-03-08T00:31:21.134Z,5.79
2023-03-08T00:33:49.742Z,5.75
2023-03-08T00:36:19.389Z,5.84
2023-03-08T00:38:47.980Z,5.80
2023-03-08T00:41:16.061Z,5.82
2023-03-08T00:43:45.090Z,5.82
2023-03-08T00:46:13.686Z,5.79
2023-03-08T00:48:42.114Z,5.54
2023-03-08T00:51:14.326Z,5.90
2023-03-08T00:53:42.069Z,5.89
2023-03-08T00:56:09.738Z,5.81
2023-03-08T00:58:39.390Z,5.82
2023-03-08T01:01:10.066Z,5.88
2023-03-08T01:03:37.711Z,5.84
2023-03-08T01:06:08.637Z,5.72
2023-03-08T01:08:36.720Z,5.72
2023-03-08T01:11:04.404Z,5.63
2023-03-08T01:13:34.296Z,5.73
2023-03-08T01:16:02.513Z,5.60
2023-03-08T01:18:33.152Z,5.55
2023-03-08T01:21:03.176Z,5.66
2023-03-08T01:23:31.377Z,5.63
2023-03-08T01:26:00.331Z,5.62
2023-03-08T01:28:28.427Z,5.47
2023-03-08T01:31:01.632Z,5.47
2023-03-08T01:33:30.636Z,5.47
2023-03-08T01:35:58.321Z,5.42
2023-03-08T01:38:25.979Z,5.38
2023-03-08T01:40:57.444Z,5.54
2023-03-08T01:43:28.159Z,5.43
2023-03-08T01:46:06.768Z,5.57
2023-03-08T01:48:41.856Z,5.58
2023-03-08T01:51:17.095Z,5.42
2023-03-08T01:53:45.270Z,5.43
2023-03-08T01:56:14.640Z,5.28
2023-03-08T01:58:44.571Z,5.35
2023-03-08T02:01:12.328Z,5.23
2023-03-08T02:03:41.503Z,5.07
2023-03-08T02:06:10.653Z,5.22
2023-03-08T02:08:38.286Z,5.22
2023-03-08T02:11:06.635Z,5.21
2023-03-08T02:13:34.981Z,5.31
2023-03-08T02:16:08.066Z,5.25
2023-03-08T02:18:35.787Z,5.19
2023-03-08T02:21:04.871Z,5.19
2023-03-08T02:23:36.016Z,5.17
2023-03-08T02:26:06.240Z,5.14
2023-03-08T02:28:35.052Z,5.19
2023-03-08T02:31:03.401Z,5.14
2023-03-08T02:33:32.271Z,5.13
2023-03-08T02:35:59.999Z,5.14
2023-03-08T02:38:27.906Z,5.38
2023-03-08T02:40:56.844Z,5.02
2023-03-08T02:43:25.069Z,5.21
2023-03-08T02:45:53.026Z,5.16
2023-03-08T02:48:21.146Z,5.20
2023-03-08T02:50:48.817Z,5.20
2023-03-08T02:53:16.497Z,4.41
2023-03-08T02:55:45.542Z,5.07
2023-03-08T02:58:15.846Z,5.07
2023-03-08T03:00:43.650Z,5.15
2023-03-08T03:03:11.451Z,5.15
2023-03-08T03:05:43.466Z,5.04
2023-03-08T03:08:14.695Z,5.14
2023-03-08T03:10:42.671Z,5.06
2023-03-08T03:13:10.326Z,4.96
2023-03-08T03:15:40.606Z,4.72
2023-03-08T03:18:08.254Z,4.92
2023-03-08T03:20:35.944Z,4.91
2023-03-08T03:23:04.116Z,5.01
2023-03-08T03:25:42.358Z,4.86
2023-03-08T03:28:14.590Z,4.92
2023-03-08T03:30:44.802Z,4.89
2023-03-08T03:33:14.685Z,4.88
2023-03-08T03:35:42.759Z,4.89
2023-03-08T03:38:11.367Z,4.84
2023-03-08T03:40:39.808Z,4.85
2023-03-08T03:43:07.529Z,4.82
2023-03-08T03:45:35.251Z,4.85
2023-03-08T03:48:04.536Z,4.83
2023-03-08T03:50:33.315Z,4.59
2023-03-08T03:53:06.652Z,4.58
2023-03-08T03:55:34.351Z,4.50
2023-03-08T03:58:07.306Z,4.40
2023-03-08T04:00:35.732Z,4.32
2023-03-08T04:03:17.453Z,4.39
2023-03-08T04:05:45.380Z,4.31
2023-03-08T04:08:13.245Z,4.24
2023-03-08T04:10:42.887Z,4.33
2023-03-08T04:13:12.870Z,4.39
2023-03-08T04:15:41.731Z,4.47
2023-03-08T04:18:12.641Z,4.45
2023-03-08T04:20:45.349Z,4.48
2023-03-08T04:23:14.403Z,4.29
2023-03-08T04:25:44.593Z,4.44
2023-03-08T04:28:15.479Z,4.52
2023-03-08T04:30:45.372Z,4.50
2023-03-08T04:33:14.163Z,4.46
2023-03-08T04:35:50.779Z,4.43
2023-03-08T04:38:21.421Z,4.62
2023-03-08T04:41:10.320Z,4.56
2023-03-08T04:43:52.654Z,4.71
2023-03-08T04:46:26.358Z,4.69
2023-03-08T04:48:55.796Z,4.69
2023-03-08T04:51:27.940Z,4.58
2023-03-08T04:53:58.537Z,4.74
2023-03-08T04:56:26.976Z,4.75
2023-03-08T04:58:54.891Z,4.57
2023-03-08T05:01:24.703Z,4.43
2023-03-08T05:03:55.814Z,4.59
2023-03-08T05:06:32.272Z,4.54
2023-03-08T05:08:59.961Z,4.61
2023-03-08T05:11:29.212Z,4.65
2023-03-08T05:13:59.325Z,4.53
2023-03-08T05:16:29.071Z,4.77
2023-03-08T05:18:57.192Z,4.75
2023-03-08T05:21:30.206Z,4.60
2023-03-08T05:24:02.292Z,4.67
2023-03-08T05:26:33.802Z,4.54
2023-03-08T05:29:03.327Z,4.45
2023-03-08T05:31:31.985Z,4.31
2023-03-08T05:34:01.767Z,4.41
2023-03-08T05:36:37.113Z,4.32
2023-03-08T05:39:08.883Z,4.24
2023-03-08T05:41:50.226Z,4.53
2023-03-08T05:44:24.387Z,4.30
2023-03-08T05:46:52.509Z,4.29
2023-03-08T05:49:21.792Z,4.45
2023-03-08T05:51:49.718Z,4.42
2023-03-08T05:54:19.537Z,4.47
2023-03-08T05:56:49.257Z,4.52
2023-03-08T05:59:26.747Z,4.56
2023-03-08T06:01:57.746Z,4.51
2023-03-08T06:04:39.546Z,4.56
2023-03-08T06:07:07.196Z,4.53
2023-03-08T06:09:43.705Z,4.52
2023-03-08T06:12:15.426Z,4.46
2023-03-08T06:14:45.529Z,4.55
2023-03-08T06:17:15.489Z,4.52
2023-03-08T06:19:47.373Z,4.78
2023-03-08T06:22:17.154Z,4.58
2023-03-08T06:24:49.622Z,4.54
2023-03-08T06:27:21.737Z,4.72
2023-03-08T06:29:51.817Z,4.55
2023-03-08T06:32:20.875Z,4.64
2023-03-08T06:34:49.564Z,4.77
2023-03-08T06:37:17.683Z,4.59
2023-03-08T06:39:47.349Z,4.76
2023-03-08T06:42:14.987Z,4.70
2023-03-08T06:44:42.580Z,4.56
2023-03-08T06:47:10.723Z,4.56
2023-03-08T06:49:38.327Z,4.63
2023-03-08T06:52:07.220Z,4.61
2023-03-08T06:54:34.948Z,4.57
2023-03-08T06:57:06.884Z,4.64
2023-03-08T06:59:34.516Z,4.75
2023-03-08T07:02:02.237Z,5.01
2023-03-08T07:04:29.887Z,4.98
2023-03-08T07:06:59.224Z,5.08
2023-03-08T07:09:26.884Z,5.30
2023-03-08T07:11:54.519Z,5.10
2023-03-08T07:14:23.513Z,5.16
2023-03-08T07:16:51.156Z,5.14
2023-03-08T07:19:18.785Z,5.13
2023-03-08T07:21:46.454Z,5.22
2023-03-08T07:24:14.350Z,4.89
2023-03-08T07:26:42.113Z,4.98
2023-03-08T07:29:09.833Z,4.73
2023-03-08T07:31:38.961Z,4.39
2023-03-08T07:34:06.573Z,4.24
2023-03-08T07:36:34.752Z,3.99
2023-03-08T07:39:02.617Z,4.16
2023-03-08T07:41:31.711Z,3.71
2023-03-08T07:43:59.511Z,3.58
2023-03-08T07:46:28.112Z,3.55
2023-03-08T07:48:57.169Z,3.24
2023-03-08T07:51:25.145Z,3.20
2023-03-08T07:53:53.704Z,3.30
2023-03-08T07:56:21.303Z,3.32
2023-03-08T07:58:49.147Z,3.01
2023-03-08T08:01:16.828Z,2.79
2023-03-08T08:03:45.664Z,2.73
2023-03-08T08:06:14.713Z,2.52
2023-03-08T08:08:42.377Z,2.51
2023-03-08T08:11:14.629Z,2.69
2023-03-08T08:13:42.585Z,2.68
2023-03-08T08:16:10.596Z,2.49
2023-03-08T08:18:38.311Z,2.69
2023-03-08T08:21:09.665Z,2.67
2023-03-08T08:23:40.207Z,2.58
2023-03-08T08:26:09.781Z,2.52
2023-03-08T08:28:39.336Z,2.69
2023-03-08T08:31:09.119Z,2.70
2023-03-08T08:33:37.700Z,2.64
2023-03-08T08:36:07.043Z,2.63
2023-03-08T08:38:35.516Z,2.77
2023-03-08T08:41:06.038Z,2.51
2023-03-08T08:43:35.007Z,2.53
2023-03-08T08:46:04.196Z,2.24
2023-03-08T08:48:33.598Z,2.55
2023-03-08T08:51:01.984Z,2.49
2023-03-08T08:53:29.682Z,2.46
2023-03-08T08:55:57.520Z,2.55
2023-03-08T08:58:26.902Z,2.70
2023-03-08T09:00:54.724Z,2.64
2023-03-08T09:03:22.325Z,2.68
2023-03-08T09:05:49.954Z,2.83
2023-03-08T09:08:17.643Z,2.85
2023-03-08T09:10:45.284Z,2.72
2023-03-08T09:13:13.677Z,2.81
2023-03-08T09:15:42.690Z,2.76
2023-03-08T09:18:10.384Z,2.80
2023-03-08T09:20:38.422Z,3.01
2023-03-08T09:23:06.100Z,3.01
2023-03-08T09:25:33.766Z,2.99
2023-03-08T09:28:01.933Z,3.13
2023-03-08T09:30:30.340Z,3.23
2023-03-08T09:32:59.681Z,3.34
2023-03-08T09:35:27.328Z,3.27
2023-03-08T09:37:56.242Z,3.39
2023-03-08T09:40:26.964Z,3.56
2023-03-08T09:43:05.024Z,3.64
2023-03-08T09:45:33.427Z,3.64
2023-03-08T09:48:10.913Z,3.69
2023-03-08T09:50:44.889Z,3.77
2023-03-08T09:53:21.867Z,3.79
2023-03-08T09:55:54.569Z,3.66
2023-03-08T09:58:33.040Z,3.70
2023-03-08T10:01:10.960Z,4.03
2023-03-08T10:04:10.197Z,4.01
2023-03-08T10:06:46.414Z,3.94
2023-03-08T10:09:24.874Z,4.18
2023-03-08T10:11:56.944Z,4.35
2023-03-08T10:14:31.057Z,4.50
2023-03-08T10:17:04.646Z,4.46
2023-03-08T10:19:39.650Z,4.52
2023-03-08T10:22:15.192Z,4.37
2023-03-08T10:24:49.322Z,4.29
2023-03-08T10:27:22.236Z,4.34
2023-03-08T10:29:54.665Z,4.40
2023-03-08T10:32:22.663Z,4.60
2023-03-08T10:34:51.728Z,4.35
2023-03-08T10:37:22.782Z,4.49
2023-03-08T10:39:53.273Z,4.38
2023-03-08T10:42:23.876Z,4.68
2023-03-08T10:44:58.013Z,4.80
2023-03-08T10:47:27.387Z,4.60
2023-03-08T10:50:13.811Z,4.86
2023-03-08T10:52:42.277Z,4.83
2023-03-08T10:55:13.485Z,4.82
2023-03-08T10:57:42.741Z,4.60
2023-03-08T11:00:29.965Z,4.81
2023-03-08T11:03:13.962Z,4.65
2023-03-08T11:05:52.325Z,4.86
2023-03-08T11:08:23.047Z,5.00
2023-03-08T11:11:01.226Z,5.14
2023-03-08T11:13:32.530Z,5.07
2023-03-08T11:16:09.592Z,5.05
2023-03-08T11:18:52.927Z,5.02
2023-03-08T11:21:33.598Z,4.98
2023-03-08T11:24:18.496Z,4.58
2023-03-08T11:26:59.774Z,4.91
2023-03-08T11:29:42.535Z,4.88
2023-03-08T11:32:21.602Z,5.02
2023-03-08T11:35:01.287Z,5.07
2023-03-08T11:37:39.464Z,5.02
2023-03-08T11:40:24.822Z,4.99
2023-03-08T11:43:06.146Z,4.93
2023-03-08T11:45:40.354Z,5.13
2023-03-08T11:48:37.423Z,5.23
2023-03-08T11:51:10.575Z,5.20
2023-03-08T11:53:54.689Z,5.17
2023-03-08T11:56:41.482Z,4.89
2023-03-08T11:59:16.513Z,5.29
2023-03-08T12:01:49.840Z,5.29
2023-03-08T12:04:22.602Z,5.27
2023-03-08T12:06:50.589Z,5.29
2023-03-08T12:09:26.942Z,5.40
2023-03-08T12:11:59.214Z,5.27
2023-03-08T12:14:31.080Z,5.43
2023-03-08T12:17:05.580Z,5.43
2023-03-08T12:19:42.674Z,5.46
2023-03-08T12:22:24.272Z,5.64
2023-03-08T12:25:00.195Z,5.69
2023-03-08T12:27:33.486Z,5.84
2023-03-08T12:30:14.434Z,5.87
2023-03-08T12:32:44.416Z,5.88
2023-03-08T12:35:27.861Z,5.83
2023-03-08T12:38:00.744Z,6.12
2023-03-08T12:40:39.777Z,6.12
2023-03-08T12:43:11.270Z,5.90
2023-03-08T12:45:39.915Z,6.13
2023-03-08T12:48:19.965Z,5.95
2023-03-08T12:51:00.308Z,6.30
2023-03-08T12:53:35.050Z,6.36
2023-03-08T12:56:08.215Z,6.25
2023-03-08T12:58:40.113Z,6.64
2023-03-08T13:01:24.479Z,6.82
2023-03-08T13:03:52.142Z,6.94
2023-03-08T13:06:45.784Z,7.13
2023-03-08T13:09:22.207Z,7.11
2023-03-08T13:12:01.123Z,7.25
2023-03-08T13:14:39.900Z,7.32
2023-03-08T13:17:35.961Z,7.34
2023-03-08T13:20:13.119Z,7.45
2023-03-08T13:22:50.912Z,7.46
2023-03-08T13:25:32.252Z,7.53
2023-03-08T13:28:05.468Z,7.61
2023-03-08T13:30:36.359Z,7.57
2023-03-08T13:33:09.492Z,7.67
2023-03-08T13:35:37.244Z,7.69
2023-03-08T13:38:05.164Z,7.19
2023-03-08T13:40:33.379Z,7.70
2023-03-08T13:43:08.446Z,7.47
2023-03-08T13:45:36.468Z,7.81
2023-03-08T13:48:09.742Z,7.89
2023-03-08T13:50:40.366Z,7.78
2023-03-08T13:53:11.813Z,7.72
2023-03-08T13:55:43.156Z,7.58
2023-03-08T13:58:23.075Z,7.59
2023-03-08T14:01:01.974Z,7.59
2023-03-08T14:03:31.434Z,7.64
2023-03-08T14:05:59.788Z,7.75
2023-03-08T14:08:28.576Z,7.78
2023-03-08T14:11:00.601Z,7.76
2023-03-08T14:13:33.289Z,7.87
2023-03-08T14:16:03.433Z,7.93
2023-03-08T14:18:33.697Z,8.03
2023-03-08T14:21:07.922Z,8.13
2023-03-08T14:23:40.266Z,8.21
2023-03-08T14:26:22.934Z,8.32
2023-03-08T14:29:04.315Z,8.38
2023-03-08T14:31:32.139Z,8.52
2023-03-08T14:34:02.288Z,8.50
2023-03-08T14:36:32.745Z,8.62
2023-03-08T14:39:01.181Z,8.64
2023-03-08T14:41:34.846Z,8.58
2023-03-08T14:44:05.250Z,8.64
2023-03-08T14:46:32.976Z,8.73
2023-03-08T14:49:03.063Z,8.65
2023-03-08T14:51:37.563Z,8.83
2023-03-08T14:54:08.281Z,8.84
2023-03-08T14:56:35.942Z,8.87
2023-03-08T14:59:05.868Z,8.72
2023-03-08T15:01:36.115Z,8.87
2023-03-08T15:04:06.195Z,8.98
2023-03-08T15:06:37.084Z,9.05
2023-03-08T15:09:09.158Z,9.09
2023-03-08T15:11:37.549Z,9.06
2023-03-08T15:14:06.490Z,9.15
2023-03-08T15:16:34.126Z,9.21
2023-03-08T15:19:01.740Z,9.16
2023-03-08T15:21:30.572Z,9.28
2023-03-08T15:23:59.120Z,9.36
2023-03-08T15:26:28.590Z,9.40
2023-03-08T15:28:56.412Z,9.38
2023-03-08T15:31:25.515Z,9.47
2023-03-08T15:33:53.209Z,9.44
2023-03-08T15:36:21.183Z,9.48
2023-03-08T15:38:49.447Z,9.50
2023-03-08T15:41:18.085Z,9.75
2023-03-08T15:43:45.743Z,9.82
2023-03-08T15:46:14.337Z,9.82
2023-03-08T15:48:45.424Z,9.79
2023-03-08T15:51:19.134Z,9.87
2023-03-08T15:53:46.879Z,9.73
2023-03-08T15:56:14.568Z,9.95
2023-03-08T15:58:42.700Z,9.89
2023-03-08T16:01:11.865Z,9.93
2023-03-08T16:03:39.709Z,9.84
2023-03-08T16:06:11.642Z,9.90
2023-03-08T16:08:40.905Z,9.84
2023-03-08T16:11:08.858Z,9.82
2023-03-08T16:13:36.729Z,9.76
2023-03-08T16:16:06.566Z,9.62
2023-03-08T16:18:36.222Z,9.69
2023-03-08T16:21:07.853Z,9.82
2023-03-08T16:23:37.144Z,9.81
2023-03-08T16:26:15.356Z,9.70
2023-03-08T16:28:45.527Z,9.67
2023-03-08T16:31:14.218Z,9.71
2023-03-08T16:33:42.008Z,9.69
2023-03-08T16:36:10.022Z,9.65
2023-03-08T16:38:39.702Z,9.63
2023-03-08T16:41:13.340Z,9.68
2023-03-08T16:43:48.832Z,9.73
2023-03-08T16:46:17.717Z,9.55
2023-03-08T16:48:45.469Z,9.58
2023-03-08T16:51:15.545Z,9.66
2023-03-08T16:53:44.765Z,9.57
2023-03-08T16:56:18.406Z,9.56
2023-03-08T16:58:46.163Z,9.53
2023-03-08T17:01:14.657Z,9.49
2023-03-08T17:03:42.389Z,9.47
2023-03-08T17:06:11.743Z,9.52
2023-03-08T17:08:39.721Z,9.47
2023-03-08T17:11:15.752Z,9.34
2023-03-08T17:13:43.708Z,9.43
2023-03-08T17:16:14.364Z,9.35
2023-03-08T17:18:42.015Z,9.46
2023-03-08T17:21:09.747Z,9.36
2023-03-08T17:23:37.510Z,9.38
2023-03-08T17:26:05.863Z,9.32
2023-03-08T17:28:35.352Z,9.25
2023-03-08T17:31:07.645Z,9.26
2023-03-08T17:33:35.973Z,9.27
2023-03-08T17:36:05.143Z,9.12
2023-03-08T17:38:33.632Z,9.24
2023-03-08T17:41:04.625Z,9.19
2023-03-08T17:43:32.334Z,9.11
2023-03-08T17:46:03.189Z,9.00
2023-03-08T17:48:31.545Z,9.03
2023-03-08T17:51:02.572Z,9.01
2023-03-08T17:53:30.405Z,9.00
2023-03-08T17:56:00.147Z,9.05
2023-03-08T17:58:28.375Z,9.03
2023-03-08T18:00:56.005Z,8.98
2023-03-08T18:03:25.164Z,9.00
2023-03-08T18:05:53.933Z,8.97
2023-03-08T18:08:21.660Z,8.90
2023-03-08T18:10:49.456Z,8.85
2023-03-08T18:13:17.131Z,8.90
2023-03-08T18:15:44.790Z,8.99
2023-03-08T18:18:12.450Z,8.86
2023-03-08T18:20:41.420Z,8.91
2023-03-08T18:23:09.176Z,8.91
2023-03-08T18:25:39.009Z,8.96
2023-03-08T18:28:06.785Z,9.01
2023-03-08T18:30:34.489Z,9.03
2023-03-08T18:33:02.157Z,9.09
2023-03-08T18:35:29.902Z,9.07
2023-03-08T18:37:58.876Z,9.10
2023-03-08T18:40:29.361Z,9.13
2023-03-08T18:42:57.405Z,9.10
2023-03-08T18:45:25.052Z,9.02
2023-03-08T18:47:53.188Z,9.06
2023-03-08T18:50:21.739Z,9.08
2023-03-08T18:52:49.409Z,9.09
2023-03-08T18:55:18.655Z,9.13
2023-03-08T18:57:46.332Z,9.10
2023-03-08T19:00:15.228Z,9.12
2023-03-08T19:02:42.998Z,9.03
2023-03-08T19:05:11.243Z,8.87
2023-03-08T19:07:41.356Z,8.88
2023-03-08T19:10:14.675Z,9.00
2023-03-08T19:12:44.553Z,8.84
2023-03-08T19:15:12.474Z,8.81
2023-03-08T19:17:40.234Z,8.98
2023-03-08T19:20:09.578Z,9.09
2023-03-08T19:22:37.850Z,9.24
2023-03-08T19:25:06.108Z,9.20
2023-03-08T19:27:34.252Z,9.08
2023-03-08T19:30:03.329Z,9.15
2023-03-08T19:32:31.144Z,9.25
2023-03-08T19:34:58.830Z,9.25
2023-03-08T19:37:26.472Z,9.08
2023-03-08T19:39:54.401Z,9.02
2023-03-08T19:42:22.146Z,9.07
2023-03-08T19:44:50.777Z,9.17
2023-03-08T19:47:20.923Z,9.08
2023-03-08T19:49:49.485Z,9.11
2023-03-08T19:52:17.326Z,9.10
2023-03-08T19:54:45.414Z,9.04
2023-03-08T19:57:13.425Z,9.02
2023-03-08T19:59:41.162Z,9.16
2023-03-08T20:02:09.895Z,9.11
2023-03-08T20:04:38.845Z,9.12
2023-03-08T20:07:06.595Z,9.10
2023-03-08T20:09:34.296Z,9.02
2023-03-08T20:12:01.957Z,9.00
2023-03-08T20:14:29.825Z,9.03
2023-03-08T20:16:58.945Z,8.74
2023-03-08T20:19:26.639Z,9.03
2023-03-08T20:21:55.644Z,9.00
2023-03-08T20:24:24.128Z,8.97
2023-03-08T20:26:51.921Z,8.90
2023-03-08T20:29:19.822Z,9.03
2023-03-08T20:31:48.159Z,9.08
2023-03-08T20:34:16.084Z,9.09
2023-03-08T20:36:44.271Z,9.07
2023-03-08T20:39:13.579Z,9.14
2023-03-08T20:41:41.545Z,9.08
2023-03-08T20:44:11.958Z,9.21
2023-03-08T20:46:39.682Z,9.14
2023-03-08T20:49:07.379Z,9.14
2023-03-08T20:51:36.272Z,9.20
2023-03-08T20:54:06.042Z,9.01
2023-03-08T20:56:35.065Z,9.18
2023-03-08T20:59:02.905Z,9.18
2023-03-08T21:01:33.370Z,9.22
2023-03-08T21:04:02.037Z,9.18
2023-03-08T21:06:31.776Z,9.09
2023-03-08T21:09:00.283Z,9.11
2023-03-08T21:11:28.457Z,9.04
2023-03-08T21:13:57.647Z,9.08
2023-03-08T21:16:26.891Z,9.07
2023-03-08T21:18:56.257Z,9.18
2023-03-08T21:21:27.164Z,9.18
2023-03-08T21:23:55.899Z,9.24
2023-03-08T21:26:25.616Z,9.22
2023-03-08T21:28:53.833Z,9.04
2023-03-08T21:31:23.341Z,8.90
2023-03-08T21:33:51.520Z,8.99
2023-03-08T21:36:19.218Z,9.06
2023-03-08T21:38:51.160Z,9.00
2023-03-08T21:41:19.640Z,9.01
2023-03-08T21:43:47.331Z,9.19
2023-03-08T21:46:15.530Z,9.19
2023-03-08T21:48:44.863Z,9.35
2023-03-08T21:51:13.352Z,9.26
2023-03-08T21:53:41.556Z,9.26
2023-03-08T21:56:10.372Z,9.33
2023-03-08T21:58:38.756Z,9.32
2023-03-08T22:01:07.730Z,9.35
2023-03-08T22:03:35.958Z,9.28
2023-03-08T22:06:05.266Z,9.48
2023-03-08T22:08:32.920Z,9.50
2023-03-08T22:11:00.652Z,9.59
2023-03-08T22:13:28.303Z,9.53
2023-03-08T22:15:56.050Z,9.59
2023-03-08T22:18:23.726Z,9.59
2023-03-08T22:20:51.356Z,9.47
2023-03-08T22:23:20.361Z,9.60
2023-03-08T22:25:47.972Z,9.47
2023-03-08T22:28:16.059Z,9.62
2023-03-08T22:30:43.670Z,9.56
2023-03-08T22:33:12.023Z,9.60
2023-03-08T22:35:39.820Z,9.64
2023-03-08T22:38:07.453Z,9.75
2023-03-08T22:40:38.705Z,9.77
2023-03-08T22:43:06.298Z,9.87
2023-03-08T22:45:34.803Z,9.85
2023-03-08T22:48:02.740Z,9.61
2023-03-08T22:50:30.572Z,9.89
2023-03-08T22:52:58.307Z,10.04
2023-03-08T22:55:25.943Z,9.98
2023-03-08T22:57:54.935Z,9.94
2023-03-08T23:00:22.718Z,9.88
2023-03-08T23:02:50.659Z,10.00
2023-03-08T23:05:21.084Z,9.94
2023-03-08T23:07:48.999Z,10.04
2023-03-08T23:10:17.760Z,10.08
2023-03-08T23:12:45.440Z,10.24
2023-03-08T23:15:14.437Z,10.18
2023-03-08T23:17:42.190Z,10.24
2023-03-08T23:20:11.861Z,10.20
2023-03-08T23:22:39.537Z,10.10
2023-03-08T23:25:08.253Z,10.33
2023-03-08T23:27:35.854Z,10.30
2023-03-08T23:30:05.181Z,10.27
2023-03-08T23:32:34.488Z,10.38
2023-03-08T23:35:02.177Z,10.14
2023-03-08T23:37:29.811Z,10.38
2023-03-08T23:39:57.690Z,10.25
2023-03-08T23:42:25.979Z,10.27
2023-03-08T23:44:53.699Z,10.23
2023-03-08T23:47:21.359Z,10.29
2023-03-08T23:49:51.576Z,10.28
2023-03-08T23:52:20.989Z,10.17
2023-03-08T23:54:48.646Z,10.10
2023-03-08T23:57:16.336Z,10.12
2023-03-08T23:59:44.050Z,9.99
